Latest Weather Observations for Gunnedah Airport

IDN60801

Issued at 7:35 pm EST Wednesday 23 July 2014 (issued every 30 minutes, with the page automatically refreshed every 10 minutes)

About weather observations | Map of weather stations | Latest weather observations for NSW | Other Formats
Station Details ID: 055202 Name: GUNNEDAH AIRPORT AWS Lat: -30.95 Lon: 150.25 Height: 262.57 m
Data from the previous 72 hours. | See also: Recent months at Gunnedah Airport
Date/Time
EST
Temp
°C
App
Temp
°C
Dew
Point
Rel
Hum
%
Delta-T
°C
Wind Press
QNH
hPa
Press
MSL
hPa
Rain
since 9 am
mm
Dir
 
Spd
km/h
Gust
km/h
Spd
kts
Gust
kts
23/07:30pm 8.3 6.3 4.3 76 1.8 E 4 6 2 3 1020.8 - 0.0
23/07:00pm 9.9 6.9 3.9 66 2.7 S 9 11 5 6 1020.3 1020.6 0.0
23/06:30pm 11.2 8.3 4.4 63 3.1 S 9 11 5 6 1020.4 - 0.0
23/06:00pm 11.3 10.0 4.1 61 3.3 S 0 0 0 0 1020.4 1020.7 0.0
23/05:30pm 14.0 12.6 3.5 49 4.8 CALM 0 0 0 0 1020.0 - 0.0
23/05:00pm 15.1 13.9 4.5 49 5.0 CALM 0 0 0 0 1020.0 1020.3 0.0
23/04:30pm 16.3 15.0 4.0 44 5.8 CALM 0 0 0 0 1020.1 - 0.0
23/04:00pm 17.0 15.6 3.3 40 6.4 CALM 0 0 0 0 1020.2 1020.5 0.0
23/03:30pm 18.5 16.7 1.1 31 7.9 CALM 0 0 0 0 1020.2 - 0.0
23/03:00pm 18.6 16.9 1.6 32 7.7 CALM 0 9 0 5 1020.2 1020.5 0.0
23/02:30pm 17.9 14.4 1.4 33 7.5 NE 9 13 5 7 1020.0 - 0.0
23/02:00pm 17.7 14.4 4.6 42 6.3 ESE 11 17 6 9 1020.3 1020.6 0.0
23/01:30pm 17.3 13.8 5.6 46 5.7 SE 13 17 7 9 1020.7 - 0.0
23/01:00pm 16.9 13.7 6.7 51 5.1 SE 13 19 7 10 1021.1 1021.4 0.0
23/12:30pm 16.4 13.0 7.6 56 4.5 SE 15 20 8 11 1021.7 - 0.0
23/12:00pm 15.4 11.5 6.9 57 4.2 SE 17 20 9 11 1022.6 1022.9 0.0
23/11:30am 15.0 11.3 6.3 56 4.2 ESE 15 20 8 11 1023.3 - 0.0
23/11:00am 13.8 10.1 6.4 61 3.6 ESE 15 22 8 12 1024.0 1024.3 0.0
23/10:30am 12.7 9.2 7.0 68 2.8 SE 15 20 8 11 1024.7 - 0.0
23/10:00am 11.1 7.0 6.3 72 2.3 SE 17 20 9 11 1024.9 1025.3 0.0
23/09:30am 10.0 6.7 6.3 78 1.7 SE 13 19 7 10 1024.9 - 0.0
23/09:00am 8.8 5.1 6.4 85 1.1 SE 15 19 8 10 1024.8 1025.2 0.8
23/08:30am 7.2 4.0 5.3 88 0.9 SE 11 13 6 7 1024.6 - 0.8
23/08:00am 5.4 1.3 4.1 91 0.6 SE 15 17 8 9 1024.3 1024.6 0.8
23/07:30am 3.3 0.5 2.0 91 0.5 E 6 15 3 8 1023.8 - 0.8
23/07:00am 3.4 -0.7 2.5 94 0.4 SE 13 15 7 8 1023.5 1023.8 0.8
23/06:30am 2.6 -1.3 1.4 92 0.5 SE 11 13 6 7 1023.2 - 0.8
23/06:00am 2.7 -1.1 1.5 92 0.5 SE 11 13 6 7 1023.0 1023.3 0.8
23/05:30am 3.0 -0.8 1.8 92 0.5 SE 11 13 6 7 1022.7 - 0.8
23/05:00am 2.8 -1.5 1.3 90 0.6 SSE 13 15 7 8 1022.5 1022.8 0.8
23/04:30am 3.8 0.9 2.8 93 0.4 SE 7 9 4 5 1022.0 - 0.8
23/04:00am 2.9 -0.5 1.7 92 0.5 SE 9 11 5 6 1021.7 1022.1 0.8
23/03:30am 3.1 0.3 1.9 92 0.5 ESE 6 7 3 4 1022.0 - 0.8
23/03:00am 3.2 0.2 1.7 90 0.6 ESE 7 9 4 5 1022.0 1022.4 0.8
23/02:30am 4.0 0.7 2.4 89 0.7 SE 9 13 5 7 1021.9 - 0.8
23/02:00am 3.5 1.8 1.7 88 0.7 CALM 0 0 0 0 1021.9 1022.3 0.8
23/01:30am 6.1 3.6 4.7 91 0.6 SE 7 11 4 6 1022.0 - 0.8
23/01:00am 3.8 0.5 2.2 89 0.6 ESE 9 11 5 6 1022.3 1022.6 0.8
23/12:30am 4.6 2.0 3.4 92 0.5 SE 6 9 3 5 1022.7 - 0.8
23/12:00am 4.3 0.3 2.7 89 0.7 SE 13 15 7 8 1022.8 1023.1 0.8
 
Date/Time
EST
Temp
°C
App
Temp
°C
Dew
Point
Rel
Hum
%
Delta-T
°C
Wind Press
QNH
hPa
Press
MSL
hPa
Rain
since 9 am
mm
Dir
 
Spd
km/h
Gust
km/h
Spd
kts
Gust
kts
22/11:30pm 5.1 2.6 3.6 90 0.6 SE 6 11 3 6 1022.8 - 0.8
22/11:00pm 5.1 2.5 3.0 86 0.9 SSE 6 11 3 6 1022.5 1022.8 0.8
22/10:30pm 6.6 5.4 4.8 88 0.8 CALM 0 0 0 0 1022.4 - 0.8
22/10:00pm 6.6 3.2 4.1 84 1.1 ESE 11 11 6 6 1022.3 1022.6 0.8
22/09:30pm 7.6 4.3 4.6 81 1.3 ESE 11 13 6 7 1022.1 - 0.8
22/09:00pm 9.3 5.2 6.0 80 1.5 SE 17 19 9 10 1022.0 1022.4 0.8
22/08:30pm 9.6 5.9 6.3 80 1.6 SE 15 20 8 11 1021.9 - 0.8
22/08:00pm 9.6 5.9 6.3 80 1.5 SE 15 17 8 9 1021.9 1022.3 0.8
22/07:30pm 10.1 7.2 6.6 79 1.7 SE 11 15 6 8 1022.0 - 0.8
22/07:00pm 10.0 7.2 7.1 82 1.4 S 11 13 6 7 1021.7 1022.1 0.8
22/06:30pm 10.9 8.5 7.0 77 1.9 S 9 11 5 6 1021.8 - 0.8
22/06:00pm 12.2 10.0 7.7 74 2.2 SE 9 13 5 7 1021.5 1021.9 0.8
22/05:30pm 12.2 9.7 8.1 76 2.0 SE 11 13 6 7 1021.3 - 0.8
22/05:00pm 13.2 11.3 8.9 75 2.2 SE 9 11 5 6 1021.0 1021.3 0.8
22/04:30pm 14.1 12.3 9.5 74 2.4 SE 9 13 5 7 1020.9 - 0.8
22/04:00pm 14.5 12.1 9.9 74 2.4 SSE 13 17 7 9 1020.5 1020.8 0.8
22/03:30pm 13.7 10.4 9.7 77 2.1 SSW 17 22 9 12 1020.6 - 0.8
22/03:00pm 17.8 12.5 7.0 49 5.5 SW 24 35 13 19 1020.2 1020.5 0.0
22/02:30pm 18.0 15.0 7.7 51 5.3 W 13 15 7 8 1019.8 - 0.0
22/02:00pm 18.0 15.3 7.4 50 5.4 WSW 11 17 6 9 1020.0 1020.3 0.0
22/01:30pm 18.0 16.0 8.6 54 4.9 W 9 19 5 10 1020.3 - 0.0
22/01:00pm 17.9 16.1 7.3 50 5.4 WNW 6 7 3 4 1020.5 1020.8 0.0
22/12:30pm 18.1 16.2 7.5 50 5.4 NE 7 13 4 7 1020.8 - 0.0
22/12:00pm 17.1 15.2 7.7 54 4.8 SSE 7 13 4 7 1021.5 1021.9 0.0
22/11:30am 16.5 14.4 8.2 58 4.3 ESE 9 20 5 11 1022.0 - 0.0
22/11:00am 15.8 13.4 8.5 62 3.7 E 11 15 6 8 1022.6 1022.9 0.0
22/10:30am 15.2 12.7 8.4 64 3.5 ESE 11 17 6 9 1022.9 - 0.0
22/10:00am 13.4 10.5 8.3 71 2.6 ESE 13 17 7 9 1023.2 1023.5 0.0
22/09:30am 12.1 9.1 7.8 75 2.1 SE 13 15 7 8 1023.3 - 0.0
22/09:00am 10.1 6.1 6.8 80 1.6 SE 17 20 9 11 1023.3 1023.6 0.0
22/08:30am 9.7 6.4 6.6 81 1.5 SE 13 20 7 11 1023.2 - 0.0
22/08:00am 9.3 6.1 6.7 84 1.2 SE 13 17 7 9 1022.9 1023.2 0.0
22/07:30am 7.4 4.3 5.5 88 0.9 SE 11 15 6 8 1022.6 - 0.0
22/07:00am 6.9 3.1 6.0 94 0.4 SE 15 19 8 10 1022.3 1022.6 0.0
22/06:30am 4.3 1.0 2.7 89 0.7 ESE 9 13 5 7 1022.1 - 0.0
22/06:00am 5.4 2.3 3.4 87 0.8 ESE 9 13 5 7 1021.8 1022.2 0.0
22/05:30am 6.3 2.2 4.5 88 0.8 SE 15 17 8 9 1021.4 - 0.0
22/05:00am 5.5 2.0 3.5 87 0.8 SSE 11 13 6 7 1021.2 1021.6 0.0
22/04:30am 5.7 1.9 3.7 87 0.9 SE 13 13 7 7 1021.2 - 0.0
22/04:00am 6.4 2.8 4.9 90 0.7 SE 13 15 7 8 1021.1 1021.4 0.0
22/03:30am 5.4 1.9 3.6 88 0.8 SE 11 15 6 8 1021.4 - 0.0
22/03:00am 5.5 2.0 3.5 87 0.8 SSE 11 13 6 7 1021.3 1021.7 0.0
22/02:30am 6.8 4.3 5.0 88 0.8 NNE 7 11 4 6 1021.5 - 0.0
22/02:00am 7.0 3.7 4.8 86 1.0 SSE 11 17 6 9 1021.1 1021.4 0.0
22/01:30am 7.0 3.5 5.6 91 0.6 SE 13 17 7 9 1021.4 - 0.0
22/01:00am 6.1 3.1 4.3 88 0.8 ESE 9 11 5 6 1021.7 1022.1 0.0
22/12:30am 5.9 3.1 3.4 84 1.1 ESE 7 9 4 5 1021.5 - 0.0
22/12:00am 6.4 3.8 4.2 86 1.0 ESE 7 11 4 6 1021.7 1022.1 0.0
 
Date/Time
EST
Temp
°C
App
Temp
°C
Dew
Point
Rel
Hum
%
Delta-T
°C
Wind Press
QNH
hPa
Press
MSL
hPa
Rain
since 9 am
mm
Dir
 
Spd
km/h
Gust
km/h
Spd
kts
Gust
kts
21/11:30pm 6.5 3.9 4.0 84 1.1 ESE 7 11 4 6 1021.7 - 0.0
21/11:00pm 7.4 4.6 5.0 85 1.1 E 9 13 5 7 1021.7 1022.1 0.0
21/10:30pm 7.9 5.1 5.0 82 1.3 ESE 9 11 5 6 1022.1 - 0.0
21/10:00pm 9.3 6.7 6.0 80 1.5 ESE 9 9 5 5 1022.1 1022.5 0.0
21/09:30pm 10.0 7.7 5.8 75 2.0 SE 7 9 4 5 1022.1 - 0.0
21/09:00pm 10.1 7.5 6.3 77 1.8 SSE 9 11 5 6 1022.0 1022.4 0.0
21/08:30pm 9.5 7.3 6.4 81 1.5 SE 7 11 4 6 1021.9 - 0.0
21/08:00pm 9.8 7.7 5.6 75 1.9 SE 6 9 3 5 1021.8 1022.2 0.0
21/07:30pm 10.4 8.5 6.5 77 1.9 SSW 6 7 3 4 1021.6 - 0.0
21/07:00pm 11.4 10.3 6.9 74 2.2 S 2 9 1 5 1021.4 1021.8 0.0
21/06:30pm 11.1 10.3 6.3 72 2.3 CALM 0 0 0 0 1021.2 - 0.0
21/06:00pm 12.2 11.2 5.6 64 3.1 CALM 0 0 0 0 1021.0 1021.3 0.0
21/05:30pm 14.0 13.1 6.1 59 3.8 CALM 0 0 0 0 1020.7 - 0.0
21/05:00pm 16.5 15.6 6.1 50 5.1 CALM 0 0 0 0 1020.7 1021.0 0.0
21/04:30pm 17.7 15.8 6.6 48 5.6 N 6 7 3 4 1020.7 - 0.0
21/04:00pm 18.0 16.4 6.2 46 5.9 ENE 4 9 2 5 1020.6 1020.9 0.0
21/03:30pm 18.2 17.0 6.4 46 5.9 W 2 9 1 5 1020.6 - 0.0
21/03:00pm 18.3 16.3 6.2 45 6.0 W 6 11 3 6 1020.6 1020.9 0.0
21/02:30pm 18.6 16.4 6.1 44 6.3 W 7 13 4 7 1020.7 - 0.0
21/02:00pm 17.9 16.3 6.4 47 5.7 W 4 9 2 5 1020.8 1021.1 0.0
21/01:30pm 17.9 15.9 7.0 49 5.5 ESE 7 15 4 8 1021.1 - 0.0
21/01:00pm 17.0 15.2 7.1 52 5.0 E 6 11 3 6 1021.6 1022.0 0.0
21/12:30pm 16.4 13.9 6.5 52 4.9 E 9 13 5 7 1022.1 - 0.0
21/12:00pm 16.4 13.1 6.5 52 4.9 E 13 20 7 11 1022.7 1023.0 0.0
21/11:30am 15.6 12.4 6.9 56 4.3 ESE 13 19 7 10 1023.4 - 0.0
21/11:00am 15.5 12.5 7.5 59 4.0 ESE 13 20 7 11 1024.0 1024.3 0.0
21/10:30am 15.3 11.3 6.8 57 4.2 ESE 17 22 9 12 1024.4 - 0.0
21/10:00am 14.3 11.4 8.0 66 3.2 SE 13 17 7 9 1024.7 1025.1 0.0
21/09:30am 12.6 8.8 7.7 72 2.4 SSE 17 20 9 11 1025.0 - 0.0
21/09:00am 10.6 6.6 6.6 76 1.9 SE 17 20 9 11 1025.0 1025.4 0.0
21/08:30am 9.6 5.9 6.5 81 1.5 SE 15 19 8 10 1025.1 - 0.0
21/08:00am 8.9 5.3 6.9 87 0.9 SSE 15 19 8 10 1025.0 1025.4 0.0
21/07:30am 6.7 2.7 5.0 89 0.8 SSE 15 17 8 9 1024.7 - 0.0
21/07:00am 6.9 3.7 5.1 88 0.8 SE 11 15 6 8 1024.5 1024.9 0.0
21/06:30am 7.4 3.1 5.4 87 0.9 SE 17 20 9 11 1024.0 - 0.0
21/06:00am 7.4 3.5 5.4 87 0.9 SE 15 17 8 9 1023.9 1024.2 0.0
21/05:30am 7.5 4.0 5.3 86 1.0 ESE 13 15 7 8 1023.7 - 0.0
21/05:00am 7.9 4.4 5.5 85 1.1 ESE 13 15 7 8 1023.3 1023.6 0.0
21/04:30am 8.9 4.8 6.0 82 1.3 ESE 17 24 9 13 1023.2 - 0.0
21/04:00am 9.2 4.7 6.3 82 1.4 SE 19 26 10 14 1023.4 1023.7 0.0
21/03:30am 9.3 4.9 6.4 82 1.4 SE 19 24 10 13 1023.3 - 0.0
21/03:00am 9.7 6.0 6.4 80 1.5 SE 15 17 8 9 1023.6 1023.9 0.0
21/02:30am 9.9 5.9 6.6 80 1.6 SE 17 20 9 11 1023.6 - 0.0
21/02:00am 10.5 6.5 6.8 78 1.8 SE 17 20 9 11 1023.8 1024.1 0.0
21/01:30am 10.0 5.6 6.7 80 1.6 SE 19 26 10 14 1023.9 - 0.0
21/01:00am 9.5 4.9 6.4 81 1.5 SSE 20 26 11 14 1023.9 1024.2 0.0
21/12:30am 10.1 5.7 6.6 79 1.7 SSE 19 26 10 14 1024.0 - 0.0
21/12:00am 10.8 5.5 6.9 77 1.9 SSE 24 32 13 17 1023.9 1024.2 0.0
 
Date/Time
EST
Temp
°C
App
Temp
°C
Dew
Point
Rel
Hum
%
Delta-T
°C
Wind Press
QNH
hPa
Press
MSL
hPa
Rain
since 9 am
mm
Dir
 
Spd
km/h
Gust
km/h
Spd
kts
Gust
kts
20/11:30pm 11.1 6.2 6.8 75 2.1 SSE 22 28 12 15 1024.3 - 0.0
20/11:00pm 10.8 6.2 6.6 75 2.0 SSE 20 26 11 14 1024.4 1024.8 0.0
20/10:30pm 11.4 6.1 6.7 73 2.3 SSE 24 30 13 16 1024.6 - 0.0
20/10:00pm 11.2 6.2 6.5 73 2.2 SSE 22 28 12 15 1024.5 1024.9 0.0
20/09:30pm 11.1 6.5 6.3 72 2.3 SSE 20 28 11 15 1024.5 - 0.0
20/09:00pm 11.7 7.1 6.4 70 2.5 SSE 20 30 11 16 1024.4 1024.8 0.0
20/08:30pm 11.7 7.3 6.4 70 2.5 SSE 19 24 10 13 1024.2 - 0.0
20/08:00pm 11.9 7.2 6.0 67 2.8 SSE 20 26 11 14 1024.1 1024.4 0.0

Other Formats:

Comma delimited format used in spreadsheet applications
http://www.bom.gov.au/fwo/IDN60801/IDN60801.95740.axf

JavaScript Object Notation format (JSON) in row-major order
http://www.bom.gov.au/fwo/IDN60801/IDN60801.95740.json